Impacts METAR Board
IDs:

KSTL - St Louis/Lambert Int, MO, US

Updated at: 0300 UTC 22 Jun 2018
Potential Impact None Slight Moderate High
Time 21/15Z 21/16Z 21/17Z 21/18Z 21/19Z 21/20Z 21/21Z 21/22Z 21/23Z 22/00Z 22/01Z 22/02Z 22/03Z
Temp77 78 79 82 85 85 84 80 78 71 72 72 71
Dewpt69 68 68 69 64 61 62 61 61 65 61 61 62
Altim29.77 29.76 29.73 29.71 29.70 29.69 29.69 29.69 29.71 29.73 29.72 29.71 29.73
VIS10 10 10 10 10 10 10 10 10 10 10 10 10
CIG21 34 44 -- -- -- -- -- 80 100 100 130 30
CoverBKNBKNBKNSCTSCTFEWFEWSCTBKNBKNBKNBKNOVC
FltCatMVFRVFRVFRVFRVFRVFRVFRVFRVFRVFRVFRVFRMVFR
WX-------------------------RA
WDir260260250200240250270260260310250230260
WSpd11 8 11 9 10 13 17 16 26 4 6 5 10
WGst-- 16 -- -- 24 22 -- -- 36 -- -- -- --
Raw hourly METARs
KSTL 211451Z 26011KT 10SM BKN021 BKN055 BKN110 BKN250 25/21 A2977 RMK AO2 SLP069 T02500206 56002
KSTL 211558Z 26008G16KT 10SM FEW019 BKN034 BKN110 BKN250 26/20 A2976 RMK AO2 LTG DSNT NE AND E T02560200
KSTL 211651Z 25011KT 10SM SCT023 BKN044 BKN250 26/20 A2973 RMK AO2 SLP056 VCSH S-SW T02610200
KSTL 211751Z 20009KT 10SM FEW029 FEW050 SCT250 28/21 A2971 RMK AO2 RAB02E16 SLP048 TCU DSNT NE-SE P0000 60000 T02780206 10278 20228 58018
KSTL 211851Z 24010G24KT 10SM SCT041 SCT250 29/18 A2970 RMK AO2 SLP046 T02940178
KSTL 211951Z 25013G22KT 10SM FEW043 FEW075 29/16 A2969 RMK AO2 SLP043 T02940161
KSTL 212051Z 27017KT 10SM FEW049 FEW085 FEW250 29/17 A2969 RMK AO2 LTG DSNT SE SLP042 CB DSNT SE MOV NE T02890167 56005
KSTL 212151Z 26016KT 10SM FEW048 FEW085 SCT250 27/16 A2969 RMK AO2 SLP044 CB DSNT NE-SE MOV NE T02670161
KSTL 212251Z 26026G36KT 10SM SCT046 BKN080 BKN230 26/16 A2971 RMK AO2 PK WND 26036/2251 SLP050 CB DSNT N-E MOV E VCSH W-NW T02560161
KSTL 212351Z 31004KT 10SM FEW045 SCT070 BKN100 BKN230 22/18 A2973 RMK AO2 PK WND 26031/2252 RAB2252E15 SLP058 VCSH N AND S P0001 60001 T02170183 10300 20211 53011
KSTL 220051Z 25006KT 10SM SCT060 BKN100 BKN200 22/16 A2972 RMK AO2 SLP053 VCSH NW T02220161
KSTL 220151Z 23005KT 10SM FEW060 SCT100 BKN130 22/16 A2971 RMK AO2 SLP051 T02220161
KSTL 220251Z 26010KT 10SM -RA BKN030 BKN100 OVC130 22/17 A2973 RMK AO2 RAB44 SLP057 P0000 60000 T02170167 55000



Page loaded:  03:28 UTC  |   08:28 PM Pacific  |   09:28 PM Mountain  |   10:28 PM Central  |   11:28 PM Eastern

 

ADVISORIES

FORECASTS

FORECASTS

OBSERVATIONS

USER TOOLS

ABOUT US